Airport Name : Lake Tahoe

Other Name : Lake Tahoe

ICAO : KTVL

IATA : TVL

FAA : TVL

Latitude : 38.893881

Longitude : -119.995336

Country : United States

Local Date and Time : 20 Sep 2020 22:45

 

TAF (Terminal Aerodrome Forecast)

KTVL 210520Z 2106/2206 VRB03KT P6SM SKC FM211800 19013G20KT P6SM FEW080 SCT200 FM220300 19006KT P6SM BKN200

 

METAR (METeorological Aerodrome Report)

KTVL 210453Z AUTO 18003KT 9SM CLR 11/04 A3019 RMK AO2 SLP175 T01110039

KTVL 210353Z AUTO 19003KT 9SM CLR 13/04 A3018 RMK AO2 SLP179 T01330044

KTVL 210253Z AUTO 00000KT 9SM CLR 15/04 A3016 RMK AO2 SLP181 T01500039 53008

KTVL 210153Z AUTO 22003KT 9SM CLR 18/03 A3015 RMK AO2 SLP174 T01830033

To Charter a Jet Click here.